sensor_id;sensor_type;location;lat;lon;timestamp;P1;durP1;ratioP1;P2;durP2;ratioP2
22064;SDS011;11197;53.110;8.468;2023-04-16T00:02:14;35.15;;;24.95;;
22064;SDS011;11197;53.110;8.468;2023-04-16T00:04:40;30.85;;;23.70;;
22064;SDS011;11197;53.110;8.468;2023-04-16T00:07:06;33.78;;;23.73;;
22064;SDS011;11197;53.110;8.468;2023-04-16T00:09:32;32.20;;;24.23;;
22064;SDS011;11197;53.110;8.468;2023-04-16T00:11:58;30.92;;;23.10;;
22064;SDS011;11197;53.110;8.468;2023-04-16T00:14:24;31.02;;;23.08;;
22064;SDS011;11197;53.110;8.468;2023-04-16T00:16:50;33.08;;;23.35;;
22064;SDS011;11197;53.110;8.468;2023-04-16T00:19:16;30.05;;;23.48;;
22064;SDS011;11197;53.110;8.468;2023-04-16T00:21:42;33.03;;;23.95;;
22064;SDS011;11197;53.110;8.468;2023-04-16T00:24:07;31.90;;;23.58;;
22064;SDS011;11197;53.110;8.468;2023-04-16T00:26:33;32.58;;;23.52;;
22064;SDS011;11197;53.110;8.468;2023-04-16T00:29:00;33.42;;;23.05;;
22064;SDS011;11197;53.110;8.468;2023-04-16T00:31:29;31.00;;;23.52;;
22064;SDS011;11197;53.110;8.468;2023-04-16T00:33:56;31.88;;;23.08;;
22064;SDS011;11197;53.110;8.468;2023-04-16T00:36:23;30.75;;;22.60;;
22064;SDS011;11197;53.110;8.468;2023-04-16T00:38:51;31.75;;;22.95;;
22064;SDS011;11197;53.110;8.468;2023-04-16T00:41:17;30.90;;;22.80;;
22064;SDS011;11197;53.110;8.468;2023-04-16T00:43:43;27.23;;;21.40;;
22064;SDS011;11197;53.110;8.468;2023-04-16T00:46:09;35.55;;;23.02;;
22064;SDS011;11197;53.110;8.468;2023-04-16T00:48:36;28.88;;;22.27;;
22064;SDS011;11197;53.110;8.468;2023-04-16T00:51:05;28.50;;;22.85;;
22064;SDS011;11197;53.110;8.468;2023-04-16T00:53:32;30.25;;;22.23;;
22064;SDS011;11197;53.110;8.468;2023-04-16T00:55:59;31.20;;;22.10;;
22064;SDS011;11197;53.110;8.468;2023-04-16T00:58:33;30.20;;;22.65;;
22064;SDS011;11197;53.110;8.468;2023-04-16T01:01:00;31.08;;;22.35;;
22064;SDS011;11197;53.110;8.468;2023-04-16T01:06:22;30.90;;;22.20;;
22064;SDS011;11197;53.110;8.468;2023-04-16T01:08:48;35.88;;;22.60;;
22064;SDS011;11197;53.110;8.468;2023-04-16T01:11:14;30.35;;;22.60;;
22064;SDS011;11197;53.110;8.468;2023-04-16T01:13:40;28.95;;;22.00;;
22064;SDS011;11197;53.110;8.468;2023-04-16T01:16:07;29.48;;;22.67;;
22064;SDS011;11197;53.110;8.468;2023-04-16T01:18:34;30.27;;;22.42;;
22064;SDS011;11197;53.110;8.468;2023-04-16T01:21:01;32.95;;;23.27;;
22064;SDS011;11197;53.110;8.468;2023-04-16T01:23:28;31.52;;;23.50;;
22064;SDS011;11197;53.110;8.468;2023-04-16T01:25:54;31.85;;;23.33;;
22064;SDS011;11197;53.110;8.468;2023-04-16T01:28:20;31.15;;;22.75;;
22064;SDS011;11197;53.110;8.468;2023-04-16T01:30:46;30.05;;;22.70;;
22064;SDS011;11197;53.110;8.468;2023-04-16T01:33:20;30.45;;;22.75;;
22064;SDS011;11197;53.110;8.468;2023-04-16T01:35:46;30.85;;;22.75;;
22064;SDS011;11197;53.110;8.468;2023-04-16T01:38:14;30.88;;;21.98;;
22064;SDS011;11197;53.110;8.468;2023-04-16T01:40:40;30.92;;;24.10;;
22064;SDS011;11197;53.110;8.468;2023-04-16T01:43:05;32.65;;;24.17;;
22064;SDS011;11197;53.110;8.468;2023-04-16T01:45:32;33.08;;;23.23;;
22064;SDS011;11197;53.110;8.468;2023-04-16T01:47:59;33.58;;;23.98;;
22064;SDS011;11197;53.110;8.468;2023-04-16T01:50:25;33.83;;;23.63;;
22064;SDS011;11197;53.110;8.468;2023-04-16T01:52:51;34.58;;;23.55;;
22064;SDS011;11197;53.110;8.468;2023-04-16T01:55:17;32.67;;;24.08;;
22064;SDS011;11197;53.110;8.468;2023-04-16T01:57:43;32.25;;;23.02;;
22064;SDS011;11197;53.110;8.468;2023-04-16T02:00:09;33.60;;;24.00;;
22064;SDS011;11197;53.110;8.468;2023-04-16T02:02:43;34.60;;;23.42;;
22064;SDS011;11197;53.110;8.468;2023-04-16T02:05:11;36.40;;;24.90;;
22064;SDS011;11197;53.110;8.468;2023-04-16T02:07:37;37.47;;;24.67;;
22064;SDS011;11197;53.110;8.468;2023-04-16T02:10:03;32.88;;;24.13;;
22064;SDS011;11197;53.110;8.468;2023-04-16T02:12:31;32.80;;;24.17;;
22064;SDS011;11197;53.110;8.468;2023-04-16T02:14:57;33.08;;;24.35;;
22064;SDS011;11197;53.110;8.468;2023-04-16T02:17:26;31.73;;;23.85;;
22064;SDS011;11197;53.110;8.468;2023-04-16T02:20:03;33.85;;;24.65;;
22064;SDS011;11197;53.110;8.468;2023-04-16T02:22:34;33.53;;;24.40;;
22064;SDS011;11197;53.110;8.468;2023-04-16T02:25:00;32.88;;;22.90;;
22064;SDS011;11197;53.110;8.468;2023-04-16T02:27:26;34.35;;;23.58;;
22064;SDS011;11197;53.110;8.468;2023-04-16T02:29:57;32.03;;;23.58;;
22064;SDS011;11197;53.110;8.468;2023-04-16T02:32:23;33.17;;;23.58;;
22064;SDS011;11197;53.110;8.468;2023-04-16T02:34:49;33.00;;;22.90;;
22064;SDS011;11197;53.110;8.468;2023-04-16T02:37:15;33.85;;;23.70;;
22064;SDS011;11197;53.110;8.468;2023-04-16T02:39:41;33.65;;;23.48;;
22064;SDS011;11197;53.110;8.468;2023-04-16T02:42:08;33.30;;;23.13;;
22064;SDS011;11197;53.110;8.468;2023-04-16T02:44:35;33.47;;;23.13;;
22064;SDS011;11197;53.110;8.468;2023-04-16T02:47:00;30.77;;;22.80;;
22064;SDS011;11197;53.110;8.468;2023-04-16T02:49:26;30.13;;;21.80;;
22064;SDS011;11197;53.110;8.468;2023-04-16T02:51:52;33.60;;;21.98;;
22064;SDS011;11197;53.110;8.468;2023-04-16T02:54:18;30.42;;;22.60;;
22064;SDS011;11197;53.110;8.468;2023-04-16T02:56:44;31.80;;;23.00;;
22064;SDS011;11197;53.110;8.468;2023-04-16T02:59:10;31.17;;;22.05;;
22064;SDS011;11197;53.110;8.468;2023-04-16T03:01:36;30.40;;;22.70;;
22064;SDS011;11197;53.110;8.468;2023-04-16T03:04:02;29.48;;;22.00;;
22064;SDS011;11197;53.110;8.468;2023-04-16T03:06:28;33.42;;;22.67;;
22064;SDS011;11197;53.110;8.468;2023-04-16T03:08:55;32.00;;;22.50;;
22064;SDS011;11197;53.110;8.468;2023-04-16T03:11:21;32.22;;;22.75;;
22064;SDS011;11197;53.110;8.468;2023-04-16T03:13:47;31.98;;;22.58;;
22064;SDS011;11197;53.110;8.468;2023-04-16T03:16:13;29.92;;;21.67;;
22064;SDS011;11197;53.110;8.468;2023-04-16T03:18:39;34.17;;;23.67;;
22064;SDS011;11197;53.110;8.468;2023-04-16T03:21:05;29.38;;;22.48;;
22064;SDS011;11197;53.110;8.468;2023-04-16T03:23:31;31.38;;;22.27;;
22064;SDS011;11197;53.110;8.468;2023-04-16T03:25:57;33.53;;;22.55;;
22064;SDS011;11197;53.110;8.468;2023-04-16T03:28:23;31.30;;;22.70;;
22064;SDS011;11197;53.110;8.468;2023-04-16T03:30:50;29.60;;;23.17;;
22064;SDS011;11197;53.110;8.468;2023-04-16T03:33:17;32.30;;;23.13;;
22064;SDS011;11197;53.110;8.468;2023-04-16T03:35:43;33.25;;;23.15;;
22064;SDS011;11197;53.110;8.468;2023-04-16T03:38:09;32.80;;;22.90;;
22064;SDS011;11197;53.110;8.468;2023-04-16T03:40:37;33.40;;;22.70;;
22064;SDS011;11197;53.110;8.468;2023-04-16T03:43:03;30.67;;;22.70;;
22064;SDS011;11197;53.110;8.468;2023-04-16T03:45:29;31.33;;;23.45;;
22064;SDS011;11197;53.110;8.468;2023-04-16T03:47:55;34.17;;;24.00;;
22064;SDS011;11197;53.110;8.468;2023-04-16T03:50:24;32.47;;;22.98;;
22064;SDS011;11197;53.110;8.468;2023-04-16T03:52:49;35.63;;;23.17;;
22064;SDS011;11197;53.110;8.468;2023-04-16T03:55:17;33.58;;;23.73;;
22064;SDS011;11197;53.110;8.468;2023-04-16T03:57:44;31.80;;;23.30;;
22064;SDS011;11197;53.110;8.468;2023-04-16T04:00:12;34.72;;;23.63;;
22064;SDS011;11197;53.110;8.468;2023-04-16T04:02:59;32.05;;;23.40;;
22064;SDS011;11197;53.110;8.468;2023-04-16T04:05:25;32.40;;;24.20;;
22064;SDS011;11197;53.110;8.468;2023-04-16T04:07:51;33.40;;;24.25;;
22064;SDS011;11197;53.110;8.468;2023-04-16T04:10:17;33.15;;;22.67;;
22064;SDS011;11197;53.110;8.468;2023-04-16T04:12:43;33.90;;;23.52;;
22064;SDS011;11197;53.110;8.468;2023-04-16T04:15:09;33.13;;;23.60;;
22064;SDS011;11197;53.110;8.468;2023-04-16T04:17:35;33.10;;;24.52;;
22064;SDS011;11197;53.110;8.468;2023-04-16T04:20:01;31.98;;;23.30;;
22064;SDS011;11197;53.110;8.468;2023-04-16T04:22:29;33.65;;;23.83;;
22064;SDS011;11197;53.110;8.468;2023-04-16T04:24:55;31.00;;;22.67;;
22064;SDS011;11197;53.110;8.468;2023-04-16T04:27:21;32.00;;;23.15;;
22064;SDS011;11197;53.110;8.468;2023-04-16T04:29:47;33.08;;;23.85;;
22064;SDS011;11197;53.110;8.468;2023-04-16T04:32:13;30.55;;;23.20;;
22064;SDS011;11197;53.110;8.468;2023-04-16T04:34:39;33.22;;;22.05;;
22064;SDS011;11197;53.110;8.468;2023-04-16T04:37:11;30.50;;;22.90;;
22064;SDS011;11197;53.110;8.468;2023-04-16T04:39:37;34.90;;;23.98;;
22064;SDS011;11197;53.110;8.468;2023-04-16T04:42:03;31.85;;;23.80;;
22064;SDS011;11197;53.110;8.468;2023-04-16T04:44:29;31.98;;;23.92;;
22064;SDS011;11197;53.110;8.468;2023-04-16T04:46:55;31.90;;;23.20;;
22064;SDS011;11197;53.110;8.468;2023-04-16T04:49:21;32.40;;;23.80;;
22064;SDS011;11197;53.110;8.468;2023-04-16T04:51:47;32.30;;;22.98;;
22064;SDS011;11197;53.110;8.468;2023-04-16T04:54:13;32.42;;;24.38;;
22064;SDS011;11197;53.110;8.468;2023-04-16T04:56:41;35.60;;;24.13;;
22064;SDS011;11197;53.110;8.468;2023-04-16T04:59:09;35.45;;;24.13;;
22064;SDS011;11197;53.110;8.468;2023-04-16T05:01:36;30.80;;;22.77;;
22064;SDS011;11197;53.110;8.468;2023-04-16T05:04:02;32.25;;;23.83;;
22064;SDS011;11197;53.110;8.468;2023-04-16T05:06:28;30.30;;;22.50;;
22064;SDS011;11197;53.110;8.468;2023-04-16T05:08:55;29.88;;;22.20;;
22064;SDS011;11197;53.110;8.468;2023-04-16T05:11:21;33.45;;;23.15;;
22064;SDS011;11197;53.110;8.468;2023-04-16T05:13:47;33.90;;;22.83;;
22064;SDS011;11197;53.110;8.468;2023-04-16T05:16:13;32.65;;;22.08;;
22064;SDS011;11197;53.110;8.468;2023-04-16T05:18:38;29.90;;;21.75;;
22064;SDS011;11197;53.110;8.468;2023-04-16T05:21:04;29.17;;;21.40;;
22064;SDS011;11197;53.110;8.468;2023-04-16T05:23:30;30.30;;;20.95;;
22064;SDS011;11197;53.110;8.468;2023-04-16T05:25:56;29.83;;;21.23;;
22064;SDS011;11197;53.110;8.468;2023-04-16T05:28:21;30.95;;;21.15;;
22064;SDS011;11197;53.110;8.468;2023-04-16T05:30:47;27.98;;;20.55;;
22064;SDS011;11197;53.110;8.468;2023-04-16T05:33:13;27.63;;;20.20;;
22064;SDS011;11197;53.110;8.468;2023-04-16T05:35:39;30.95;;;20.60;;
22064;SDS011;11197;53.110;8.468;2023-04-16T05:38:05;30.33;;;21.58;;
22064;SDS011;11197;53.110;8.468;2023-04-16T05:40:31;28.10;;;20.42;;
22064;SDS011;11197;53.110;8.468;2023-04-16T05:42:56;30.52;;;20.65;;
22064;SDS011;11197;53.110;8.468;2023-04-16T05:45:22;29.45;;;20.52;;
22064;SDS011;11197;53.110;8.468;2023-04-16T05:47:48;27.52;;;20.38;;
22064;SDS011;11197;53.110;8.468;2023-04-16T05:50:14;29.35;;;20.05;;
22064;SDS011;11197;53.110;8.468;2023-04-16T05:52:40;28.67;;;20.05;;
22064;SDS011;11197;53.110;8.468;2023-04-16T05:55:06;29.98;;;20.58;;
22064;SDS011;11197;53.110;8.468;2023-04-16T05:57:32;27.70;;;20.10;;
22064;SDS011;11197;53.110;8.468;2023-04-16T05:59:58;28.52;;;20.00;;
22064;SDS011;11197;53.110;8.468;2023-04-16T06:02:24;29.75;;;20.27;;
22064;SDS011;11197;53.110;8.468;2023-04-16T06:04:50;31.40;;;20.60;;
22064;SDS011;11197;53.110;8.468;2023-04-16T06:07:16;27.45;;;19.75;;
22064;SDS011;11197;53.110;8.468;2023-04-16T06:09:42;26.88;;;20.08;;
22064;SDS011;11197;53.110;8.468;2023-04-16T06:12:08;29.70;;;18.95;;
22064;SDS011;11197;53.110;8.468;2023-04-16T06:14:34;26.70;;;19.38;;
22064;SDS011;11197;53.110;8.468;2023-04-16T06:17:00;26.58;;;19.67;;
22064;SDS011;11197;53.110;8.468;2023-04-16T06:19:26;27.60;;;19.23;;
22064;SDS011;11197;53.110;8.468;2023-04-16T06:21:52;28.40;;;19.38;;
22064;SDS011;11197;53.110;8.468;2023-04-16T06:24:18;28.20;;;18.85;;
22064;SDS011;11197;53.110;8.468;2023-04-16T06:26:44;28.08;;;19.60;;
22064;SDS011;11197;53.110;8.468;2023-04-16T06:29:10;27.58;;;20.55;;
22064;SDS011;11197;53.110;8.468;2023-04-16T06:31:36;28.38;;;20.80;;
22064;SDS011;11197;53.110;8.468;2023-04-16T06:34:02;27.35;;;20.65;;
22064;SDS011;11197;53.110;8.468;2023-04-16T06:36:28;28.13;;;20.38;;
22064;SDS011;11197;53.110;8.468;2023-04-16T06:38:54;28.40;;;20.38;;
22064;SDS011;11197;53.110;8.468;2023-04-16T06:41:20;25.75;;;19.25;;
22064;SDS011;11197;53.110;8.468;2023-04-16T06:43:47;26.95;;;20.17;;
22064;SDS011;11197;53.110;8.468;2023-04-16T06:46:12;28.65;;;19.75;;
22064;SDS011;11197;53.110;8.468;2023-04-16T06:48:38;28.02;;;20.02;;
22064;SDS011;11197;53.110;8.468;2023-04-16T06:51:04;25.92;;;19.58;;
22064;SDS011;11197;53.110;8.468;2023-04-16T06:53:30;28.80;;;19.30;;
22064;SDS011;11197;53.110;8.468;2023-04-16T06:55:57;29.73;;;20.27;;
22064;SDS011;11197;53.110;8.468;2023-04-16T06:58:23;28.50;;;20.13;;
22064;SDS011;11197;53.110;8.468;2023-04-16T07:00:48;28.10;;;19.90;;
22064;SDS011;11197;53.110;8.468;2023-04-16T07:03:14;26.90;;;20.20;;
22064;SDS011;11197;53.110;8.468;2023-04-16T07:05:40;30.67;;;20.48;;
22064;SDS011;11197;53.110;8.468;2023-04-16T07:08:06;30.20;;;21.23;;
22064;SDS011;11197;53.110;8.468;2023-04-16T07:10:32;32.17;;;21.52;;
22064;SDS011;11197;53.110;8.468;2023-04-16T07:12:58;28.45;;;21.20;;
22064;SDS011;11197;53.110;8.468;2023-04-16T07:15:26;28.25;;;20.30;;
22064;SDS011;11197;53.110;8.468;2023-04-16T07:17:52;29.88;;;20.77;;
22064;SDS011;11197;53.110;8.468;2023-04-16T07:20:17;31.30;;;21.05;;
22064;SDS011;11197;53.110;8.468;2023-04-16T07:22:43;29.90;;;21.00;;
22064;SDS011;11197;53.110;8.468;2023-04-16T07:25:09;29.85;;;20.73;;
22064;SDS011;11197;53.110;8.468;2023-04-16T07:27:35;30.20;;;21.23;;
22064;SDS011;11197;53.110;8.468;2023-04-16T07:30:01;29.65;;;21.10;;
22064;SDS011;11197;53.110;8.468;2023-04-16T07:32:27;30.50;;;21.13;;
22064;SDS011;11197;53.110;8.468;2023-04-16T07:34:53;28.17;;;20.60;;
22064;SDS011;11197;53.110;8.468;2023-04-16T07:37:19;28.60;;;20.55;;
22064;SDS011;11197;53.110;8.468;2023-04-16T07:39:45;28.77;;;20.60;;
22064;SDS011;11197;53.110;8.468;2023-04-16T07:42:11;30.23;;;21.40;;
22064;SDS011;11197;53.110;8.468;2023-04-16T07:44:37;27.38;;;21.02;;
22064;SDS011;11197;53.110;8.468;2023-04-16T07:47:03;30.20;;;20.77;;
22064;SDS011;11197;53.110;8.468;2023-04-16T07:49:29;29.73;;;20.33;;
22064;SDS011;11197;53.110;8.468;2023-04-16T07:51:55;26.95;;;20.80;;
22064;SDS011;11197;53.110;8.468;2023-04-16T07:54:21;32.15;;;20.40;;
22064;SDS011;11197;53.110;8.468;2023-04-16T07:56:47;27.27;;;20.27;;
22064;SDS011;11197;53.110;8.468;2023-04-16T07:59:13;28.15;;;20.10;;
22064;SDS011;11197;53.110;8.468;2023-04-16T08:01:39;28.95;;;21.23;;
22064;SDS011;11197;53.110;8.468;2023-04-16T08:04:04;28.65;;;20.55;;
22064;SDS011;11197;53.110;8.468;2023-04-16T08:06:30;27.90;;;20.48;;
22064;SDS011;11197;53.110;8.468;2023-04-16T08:08:56;31.90;;;20.35;;
22064;SDS011;11197;53.110;8.468;2023-04-16T08:11:22;27.60;;;20.08;;
22064;SDS011;11197;53.110;8.468;2023-04-16T08:13:48;28.15;;;19.55;;
22064;SDS011;11197;53.110;8.468;2023-04-16T08:16:14;27.92;;;19.10;;
22064;SDS011;11197;53.110;8.468;2023-04-16T08:18:40;26.13;;;18.85;;
22064;SDS011;11197;53.110;8.468;2023-04-16T08:21:07;29.35;;;20.05;;
22064;SDS011;11197;53.110;8.468;2023-04-16T08:23:33;29.83;;;20.00;;
22064;SDS011;11197;53.110;8.468;2023-04-16T08:25:59;28.75;;;18.83;;
22064;SDS011;11197;53.110;8.468;2023-04-16T08:28:26;27.88;;;19.15;;
22064;SDS011;11197;53.110;8.468;2023-04-16T08:30:52;25.67;;;18.92;;
22064;SDS011;11197;53.110;8.468;2023-04-16T08:33:21;26.17;;;18.70;;
22064;SDS011;11197;53.110;8.468;2023-04-16T08:35:46;26.17;;;19.52;;
22064;SDS011;11197;53.110;8.468;2023-04-16T08:38:12;28.25;;;18.60;;
22064;SDS011;11197;53.110;8.468;2023-04-16T08:40:39;27.73;;;19.05;;
22064;SDS011;11197;53.110;8.468;2023-04-16T08:43:10;26.65;;;18.33;;
22064;SDS011;11197;53.110;8.468;2023-04-16T08:45:40;27.85;;;18.17;;
22064;SDS011;11197;53.110;8.468;2023-04-16T08:48:08;23.80;;;17.55;;
22064;SDS011;11197;53.110;8.468;2023-04-16T08:50:36;26.05;;;17.60;;
22064;SDS011;11197;53.110;8.468;2023-04-16T08:53:03;25.33;;;17.60;;
22064;SDS011;11197;53.110;8.468;2023-04-16T08:55:36;26.35;;;17.80;;
22064;SDS011;11197;53.110;8.468;2023-04-16T08:58:14;26.80;;;17.65;;
22064;SDS011;11197;53.110;8.468;2023-04-16T09:00:43;27.88;;;18.20;;
22064;SDS011;11197;53.110;8.468;2023-04-16T09:03:10;25.95;;;18.10;;
22064;SDS011;11197;53.110;8.468;2023-04-16T09:05:37;26.27;;;17.65;;
22064;SDS011;11197;53.110;8.468;2023-04-16T09:08:03;25.27;;;17.48;;
22064;SDS011;11197;53.110;8.468;2023-04-16T09:10:30;24.15;;;16.50;;
22064;SDS011;11197;53.110;8.468;2023-04-16T09:12:56;26.80;;;17.60;;
22064;SDS011;11197;53.110;8.468;2023-04-16T09:15:23;26.73;;;18.55;;
22064;SDS011;11197;53.110;8.468;2023-04-16T09:17:50;24.13;;;17.73;;
22064;SDS011;11197;53.110;8.468;2023-04-16T09:20:17;30.58;;;17.92;;
22064;SDS011;11197;53.110;8.468;2023-04-16T09:22:43;26.73;;;17.77;;
22064;SDS011;11197;53.110;8.468;2023-04-16T09:25:10;27.15;;;16.83;;
22064;SDS011;11197;53.110;8.468;2023-04-16T09:27:37;28.85;;;17.58;;
22064;SDS011;11197;53.110;8.468;2023-04-16T09:30:36;25.27;;;17.67;;
22064;SDS011;11197;53.110;8.468;2023-04-16T09:33:12;26.73;;;17.17;;
22064;SDS011;11197;53.110;8.468;2023-04-16T09:35:48;27.17;;;17.15;;
22064;SDS011;11197;53.110;8.468;2023-04-16T09:38:15;24.48;;;17.40;;
22064;SDS011;11197;53.110;8.468;2023-04-16T09:40:42;24.73;;;16.70;;
22064;SDS011;11197;53.110;8.468;2023-04-16T09:43:12;23.65;;;16.23;;
22064;SDS011;11197;53.110;8.468;2023-04-16T09:48:14;25.63;;;17.60;;
22064;SDS011;11197;53.110;8.468;2023-04-16T09:50:45;25.52;;;17.40;;
22064;SDS011;11197;53.110;8.468;2023-04-16T09:53:22;24.50;;;16.75;;
22064;SDS011;11197;53.110;8.468;2023-04-16T09:55:55;25.52;;;17.33;;
22064;SDS011;11197;53.110;8.468;2023-04-16T09:58:25;26.48;;;17.25;;
22064;SDS011;11197;53.110;8.468;2023-04-16T10:00:55;21.90;;;16.33;;
22064;SDS011;11197;53.110;8.468;2023-04-16T10:03:32;25.40;;;17.13;;
22064;SDS011;11197;53.110;8.468;2023-04-16T10:06:13;26.15;;;16.95;;
22064;SDS011;11197;53.110;8.468;2023-04-16T10:08:42;25.30;;;17.60;;
22064;SDS011;11197;53.110;8.468;2023-04-16T10:11:10;25.30;;;17.63;;
22064;SDS011;11197;53.110;8.468;2023-04-16T10:13:36;23.65;;;16.55;;
22064;SDS011;11197;53.110;8.468;2023-04-16T10:16:02;24.65;;;16.83;;
22064;SDS011;11197;53.110;8.468;2023-04-16T10:18:29;22.58;;;16.38;;
22064;SDS011;11197;53.110;8.468;2023-04-16T10:20:55;24.77;;;16.77;;
22064;SDS011;11197;53.110;8.468;2023-04-16T10:23:22;23.42;;;16.23;;
22064;SDS011;11197;53.110;8.468;2023-04-16T10:25:48;21.88;;;16.30;;
22064;SDS011;11197;53.110;8.468;2023-04-16T10:28:14;23.80;;;17.08;;
22064;SDS011;11197;53.110;8.468;2023-04-16T10:30:44;26.05;;;16.45;;
22064;SDS011;11197;53.110;8.468;2023-04-16T10:33:24;22.60;;;16.25;;
22064;SDS011;11197;53.110;8.468;2023-04-16T10:36:05;21.35;;;16.08;;
22064;SDS011;11197;53.110;8.468;2023-04-16T10:38:39;24.35;;;16.10;;
22064;SDS011;11197;53.110;8.468;2023-04-16T10:41:09;23.35;;;16.88;;
22064;SDS011;11197;53.110;8.468;2023-04-16T10:43:45;21.20;;;16.00;;
22064;SDS011;11197;53.110;8.468;2023-04-16T10:48:54;21.40;;;16.25;;
22064;SDS011;11197;53.110;8.468;2023-04-16T10:51:34;20.83;;;16.10;;
22064;SDS011;11197;53.110;8.468;2023-04-16T10:54:18;21.92;;;16.48;;
22064;SDS011;11197;53.110;8.468;2023-04-16T10:56:45;22.02;;;16.45;;
22064;SDS011;11197;53.110;8.468;2023-04-16T10:59:12;22.73;;;16.23;;
22064;SDS011;11197;53.110;8.468;2023-04-16T11:01:43;25.48;;;17.50;;
22064;SDS011;11197;53.110;8.468;2023-04-16T11:12:15;20.08;;;15.55;;
22064;SDS011;11197;53.110;8.468;2023-04-16T11:14:46;19.40;;;15.57;;
22064;SDS011;11197;53.110;8.468;2023-04-16T11:17:17;21.45;;;15.90;;
22064;SDS011;11197;53.110;8.468;2023-04-16T11:19:43;20.52;;;15.32;;
22064;SDS011;11197;53.110;8.468;2023-04-16T11:22:13;21.65;;;15.65;;
22064;SDS011;11197;53.110;8.468;2023-04-16T11:24:45;18.58;;;14.25;;
22064;SDS011;11197;53.110;8.468;2023-04-16T11:27:15;20.90;;;14.90;;
22064;SDS011;11197;53.110;8.468;2023-04-16T11:29:41;20.67;;;15.20;;
22064;SDS011;11197;53.110;8.468;2023-04-16T11:32:07;19.40;;;14.68;;
22064;SDS011;11197;53.110;8.468;2023-04-16T11:34:33;21.10;;;15.82;;
22064;SDS011;11197;53.110;8.468;2023-04-16T11:37:07;20.73;;;14.82;;
22064;SDS011;11197;53.110;8.468;2023-04-16T11:39:33;19.10;;;15.05;;
22064;SDS011;11197;53.110;8.468;2023-04-16T11:42:11;21.05;;;15.95;;
22064;SDS011;11197;53.110;8.468;2023-04-16T11:44:53;20.38;;;16.15;;
22064;SDS011;11197;53.110;8.468;2023-04-16T11:47:20;20.23;;;15.73;;
22064;SDS011;11197;53.110;8.468;2023-04-16T11:49:50;20.70;;;14.30;;
22064;SDS011;11197;53.110;8.468;2023-04-16T11:54:58;19.67;;;14.88;;
22064;SDS011;11197;53.110;8.468;2023-04-16T11:59:53;19.25;;;15.02;;
22064;SDS011;11197;53.110;8.468;2023-04-16T12:02:33;20.48;;;15.32;;
22064;SDS011;11197;53.110;8.468;2023-04-16T12:05:01;18.83;;;14.50;;
22064;SDS011;11197;53.110;8.468;2023-04-16T12:07:31;20.20;;;14.38;;
22064;SDS011;11197;53.110;8.468;2023-04-16T12:10:08;18.67;;;14.60;;
22064;SDS011;11197;53.110;8.468;2023-04-16T12:12:35;19.52;;;14.35;;
22064;SDS011;11197;53.110;8.468;2023-04-16T12:15:01;19.48;;;14.88;;
22064;SDS011;11197;53.110;8.468;2023-04-16T12:17:28;18.85;;;14.30;;
22064;SDS011;11197;53.110;8.468;2023-04-16T12:19:58;17.55;;;13.43;;
22064;SDS011;11197;53.110;8.468;2023-04-16T12:22:29;18.38;;;13.93;;
22064;SDS011;11197;53.110;8.468;2023-04-16T12:25:20;17.38;;;14.02;;
22064;SDS011;11197;53.110;8.468;2023-04-16T12:27:49;19.40;;;13.80;;
22064;SDS011;11197;53.110;8.468;2023-04-16T12:30:17;16.58;;;13.35;;
22064;SDS011;11197;53.110;8.468;2023-04-16T12:32:45;18.45;;;13.75;;
22064;SDS011;11197;53.110;8.468;2023-04-16T12:35:12;17.70;;;13.82;;
22064;SDS011;11197;53.110;8.468;2023-04-16T12:37:53;20.77;;;14.32;;
22064;SDS011;11197;53.110;8.468;2023-04-16T12:40:18;19.17;;;13.88;;
22064;SDS011;11197;53.110;8.468;2023-04-16T12:42:44;17.95;;;13.77;;
22064;SDS011;11197;53.110;8.468;2023-04-16T12:45:10;18.63;;;13.98;;
22064;SDS011;11197;53.110;8.468;2023-04-16T12:47:36;18.02;;;13.63;;
22064;SDS011;11197;53.110;8.468;2023-04-16T12:50:02;18.48;;;13.10;;
22064;SDS011;11197;53.110;8.468;2023-04-16T12:52:28;17.50;;;13.68;;
22064;SDS011;11197;53.110;8.468;2023-04-16T12:54:55;18.13;;;13.38;;
22064;SDS011;11197;53.110;8.468;2023-04-16T12:57:21;18.77;;;13.73;;
22064;SDS011;11197;53.110;8.468;2023-04-16T12:59:53;18.52;;;13.73;;
22064;SDS011;11197;53.110;8.468;2023-04-16T13:02:20;16.70;;;13.48;;
22064;SDS011;11197;53.110;8.468;2023-04-16T13:04:47;17.13;;;13.10;;
22064;SDS011;11197;53.110;8.468;2023-04-16T13:07:12;18.10;;;13.55;;
22064;SDS011;11197;53.110;8.468;2023-04-16T13:09:38;17.05;;;13.57;;
22064;SDS011;11197;53.110;8.468;2023-04-16T13:12:05;18.00;;;13.70;;
22064;SDS011;11197;53.110;8.468;2023-04-16T13:14:31;19.25;;;13.68;;
22064;SDS011;11197;53.110;8.468;2023-04-16T13:16:57;17.45;;;14.02;;
22064;SDS011;11197;53.110;8.468;2023-04-16T13:19:22;18.45;;;14.88;;
22064;SDS011;11197;53.110;8.468;2023-04-16T13:21:48;17.27;;;14.18;;
22064;SDS011;11197;53.110;8.468;2023-04-16T13:24:14;17.45;;;14.43;;
22064;SDS011;11197;53.110;8.468;2023-04-16T13:26:40;18.40;;;13.73;;
22064;SDS011;11197;53.110;8.468;2023-04-16T13:29:07;15.90;;;13.98;;
22064;SDS011;11197;53.110;8.468;2023-04-16T13:31:33;18.67;;;13.57;;
22064;SDS011;11197;53.110;8.468;2023-04-16T13:34:00;19.67;;;14.73;;
22064;SDS011;11197;53.110;8.468;2023-04-16T13:36:26;20.30;;;14.93;;
22064;SDS011;11197;53.110;8.468;2023-04-16T13:38:52;19.38;;;14.50;;
22064;SDS011;11197;53.110;8.468;2023-04-16T13:41:17;18.55;;;13.80;;
22064;SDS011;11197;53.110;8.468;2023-04-16T13:43:43;19.88;;;14.40;;
22064;SDS011;11197;53.110;8.468;2023-04-16T13:46:09;15.77;;;13.40;;
22064;SDS011;11197;53.110;8.468;2023-04-16T13:48:35;16.95;;;13.07;;
22064;SDS011;11197;53.110;8.468;2023-04-16T13:51:01;19.88;;;14.57;;
22064;SDS011;11197;53.110;8.468;2023-04-16T13:53:27;19.88;;;14.10;;
22064;SDS011;11197;53.110;8.468;2023-04-16T13:55:53;17.27;;;13.75;;
22064;SDS011;11197;53.110;8.468;2023-04-16T13:58:19;19.90;;;14.13;;
22064;SDS011;11197;53.110;8.468;2023-04-16T14:00:45;18.02;;;13.80;;
22064;SDS011;11197;53.110;8.468;2023-04-16T14:03:11;16.55;;;12.85;;
22064;SDS011;11197;53.110;8.468;2023-04-16T14:05:37;18.95;;;13.85;;
22064;SDS011;11197;53.110;8.468;2023-04-16T14:08:03;17.80;;;13.55;;
22064;SDS011;11197;53.110;8.468;2023-04-16T14:10:29;17.20;;;14.02;;
22064;SDS011;11197;53.110;8.468;2023-04-16T14:12:56;19.88;;;14.40;;
22064;SDS011;11197;53.110;8.468;2023-04-16T14:15:22;19.30;;;13.70;;
22064;SDS011;11197;53.110;8.468;2023-04-16T14:17:50;17.02;;;14.02;;
22064;SDS011;11197;53.110;8.468;2023-04-16T14:20:16;17.60;;;13.73;;
22064;SDS011;11197;53.110;8.468;2023-04-16T14:22:42;18.38;;;13.93;;
22064;SDS011;11197;53.110;8.468;2023-04-16T14:25:10;17.85;;;13.30;;
22064;SDS011;11197;53.110;8.468;2023-04-16T14:27:36;18.73;;;14.73;;
22064;SDS011;11197;53.110;8.468;2023-04-16T14:30:03;18.35;;;14.52;;
22064;SDS011;11197;53.110;8.468;2023-04-16T14:32:30;19.10;;;14.10;;
22064;SDS011;11197;53.110;8.468;2023-04-16T14:34:56;19.88;;;15.18;;
22064;SDS011;11197;53.110;8.468;2023-04-16T14:37:21;18.75;;;15.00;;
22064;SDS011;11197;53.110;8.468;2023-04-16T14:39:48;24.85;;;15.82;;
22064;SDS011;11197;53.110;8.468;2023-04-16T14:42:14;18.52;;;15.02;;
22064;SDS011;11197;53.110;8.468;2023-04-16T14:44:41;21.35;;;15.93;;